Time;durP1;ratioP1;P1;durP2;ratioP2;P2;SDS_P1;SDS_P2;PMS_P1;PMS_P2;Temp;Humidity;BMP_temperature;BMP_pressure;BME280_temperature;BME280_humidity;BME280_pressure;Samples;Min_cycle;Max_cycle;Signal;HPM_P1;HPM_P2
2023/06/14 00:00:48;;;;;;;9.50;8.60;;;16.40;1.00;;;;;;5110649;28;20912;-54
2023/06/14 00:03:17;;;;;;;9.50;8.50;;;16.30;1.00;;;;;;5098324;28;20500;-56
2023/06/14 00:05:46;;;;;;;9.77;8.87;;;16.30;1.00;;;;;;5108805;28;20488;-54
2023/06/14 00:08:15;;;;;;;11.37;8.77;;;16.30;1.00;;;;;;5117666;28;20459;-55
2023/06/14 00:10:43;;;;;;;9.37;8.50;;;16.30;1.00;;;;;;5116935;28;20465;-53
2023/06/14 00:13:11;;;;;;;10.33;9.43;;;16.30;1.00;;;;;;5117576;28;20460;-53
2023/06/14 00:15:38;;;;;;;11.27;10.23;;;16.20;1.00;;;;;;5113488;28;20549;-55
2023/06/14 00:18:06;;;;;;;9.73;8.83;;;16.30;1.00;;;;;;5101958;28;20819;-56
2023/06/14 00:20:34;;;;;;;11.80;8.40;;;16.20;1.00;;;;;;5115622;28;20479;-56
2023/06/14 00:23:02;;;;;;;10.30;9.40;;;16.20;1.00;;;;;;5117950;28;20499;-57
2023/06/14 00:25:30;;;;;;;9.97;7.97;;;16.10;1.00;;;;;;5117297;28;20814;-57
2023/06/14 00:27:58;;;;;;;10.20;9.20;;;16.10;1.00;;;;;;5117456;28;20881;-56
2023/06/14 00:30:30;;;;;;;9.50;8.60;;;16.10;1.00;;;;;;5117659;28;20463;-54
2023/06/14 00:32:58;;;;;;;8.33;7.63;;;16.00;1.00;;;;;;5117724;28;20468;-54
2023/06/14 00:35:25;;;;;;;8.17;7.40;;;16.00;1.00;;;;;;5117053;28;20463;-56
2023/06/14 00:37:54;;;;;;;9.97;7.73;;;16.00;1.00;;;;;;5117226;28;20523;-56
2023/06/14 00:40:22;;;;;;;9.17;8.37;;;16.00;1.00;;;;;;5117403;28;20464;-55
2023/06/14 00:42:51;;;;;;;9.80;9.00;;;16.00;1.00;;;;;;5117456;28;20463;-56
2023/06/14 00:45:18;;;;;;;9.33;8.00;;;16.00;1.00;;;;;;5116780;28;20464;-54
2023/06/14 00:47:48;;;;;;;10.33;8.97;;;16.00;4.40;;;;;;5117344;28;20459;-56
2023/06/14 00:50:15;;;;;;;9.83;8.93;;;15.90;1.00;;;;;;5117140;28;20558;-54
2023/06/14 00:52:42;;;;;;;11.17;9.97;;;15.80;1.00;;;;;;5117504;28;20577;-55
2023/06/14 00:55:10;;;;;;;9.40;8.60;;;15.70;27.70;;;;;;5116693;28;20459;-53
2023/06/14 00:57:39;;;;;;;11.00;9.90;;;15.60;21.70;;;;;;5117071;28;20578;-56
2023/06/14 01:00:10;;;;;;;11.00;10.00;;;15.60;45.50;;;;;;5114699;28;20754;-57
2023/06/14 01:02:38;;;;;;;9.70;8.73;;;15.60;48.30;;;;;;5109717;28;20491;-54
2023/06/14 01:05:07;;;;;;;11.23;10.20;;;15.50;92.90;;;;;;5116762;28;20470;-56
2023/06/14 01:07:43;;;;;;;12.90;9.63;;;15.50;99.90;;;;;;5116923;28;20512;-56
2023/06/14 01:10:21;;;;;;;10.30;9.30;;;15.50;99.90;;;;;;5116538;28;20561;-55
2023/06/14 01:12:57;;;;;;;10.10;9.10;;;15.40;99.90;;;;;;5117308;28;20486;-55
2023/06/14 01:15:27;;;;;;;9.20;8.40;;;15.40;99.90;;;;;;5116988;28;20460;-53
2023/06/14 01:17:57;;;;;;;10.27;9.37;;;15.40;99.90;;;;;;5116794;28;20497;-56
2023/06/14 01:20:30;;;;;;;10.37;9.43;;;15.40;99.90;;;;;;5119725;28;20470;-54
2023/06/14 01:22:59;;;;;;;10.90;9.00;;;15.40;99.90;;;;;;5120899;28;20463;-55
2023/06/14 01:25:27;;;;;;;10.83;9.43;;;15.30;99.90;;;;;;5120580;28;20910;-57
2023/06/14 01:27:59;;;;;;;11.40;10.20;;;15.30;99.90;;;;;;5120750;28;20463;-55
2023/06/14 01:30:27;;;;;;;12.50;11.23;;;15.40;99.90;;;;;;5120722;28;20941;-54
2023/06/14 01:32:56;;;;;;;17.00;14.13;;;15.30;99.90;;;;;;5120600;28;20510;-53
2023/06/14 01:35:24;;;;;;;19.07;14.47;;;15.30;99.90;;;;;;5120544;28;20487;-55
2023/06/14 01:37:52;;;;;;;19.50;16.30;;;15.30;99.90;;;;;;5120483;28;20534;-57
2023/06/14 01:40:21;;;;;;;24.87;19.70;;;15.30;99.90;;;;;;5120517;28;20772;-52
2023/06/14 01:42:50;;;;;;;22.80;20.50;;;15.30;99.90;;;;;;5120391;28;20499;-55
2023/06/14 01:45:19;;;;;;;25.33;19.57;;;15.30;99.90;;;;;;5120747;28;20565;-57
2023/06/14 01:47:47;;;;;;;16.90;15.10;;;15.30;99.90;;;;;;5120126;28;20455;-55
2023/06/14 01:50:14;;;;;;;15.13;13.63;;;15.20;99.90;;;;;;5120526;28;20464;-57
2023/06/14 01:52:42;;;;;;;14.07;12.67;;;15.10;99.90;;;;;;5120209;28;20554;-51
2023/06/14 01:55:09;;;;;;;14.20;12.53;;;15.00;1.00;;;;;;5119910;28;20463;-54
2023/06/14 01:57:38;;;;;;;12.70;11.30;;;14.90;1.00;;;;;;5119778;28;20491;-56
2023/06/14 02:00:10;;;;;;;12.57;11.27;;;14.80;1.00;;;;;;5120082;28;20554;-55
2023/06/14 02:02:37;;;;;;;13.20;11.33;;;14.80;1.00;;;;;;5119726;28;20559;-56
2023/06/14 02:05:05;;;;;;;12.90;10.73;;;14.70;1.00;;;;;;5120349;28;20455;-52
2023/06/14 02:07:33;;;;;;;13.20;11.83;;;14.60;1.00;;;;;;5119823;28;20458;-55
2023/06/14 02:10:00;;;;;;;12.60;11.50;;;14.60;1.00;;;;;;5119858;28;20466;-52
2023/06/14 02:12:27;;;;;;;12.47;11.17;;;14.60;1.00;;;;;;5119917;28;20737;-56
2023/06/14 02:14:57;;;;;;;14.50;13.10;;;14.60;1.00;;;;;;5120028;28;20495;-56
2023/06/14 02:17:25;;;;;;;13.20;12.00;;;14.50;1.00;;;;;;5119544;28;20536;-56
2023/06/14 02:19:52;;;;;;;13.40;12.13;;;14.40;22.60;;;;;;5119401;28;20464;-55
2023/06/14 02:22:21;;;;;;;13.03;11.80;;;14.40;84.40;;;;;;5119470;28;20466;-56
2023/06/14 02:24:48;;;;;;;14.03;11.77;;;14.40;99.90;;;;;;5119893;28;20520;-56
2023/06/14 02:27:16;;;;;;;12.70;11.50;;;14.40;99.90;;;;;;5119257;28;20499;-55
2023/06/14 02:29:43;;;;;;;13.80;10.90;;;14.40;99.90;;;;;;5119105;27;20470;-55
2023/06/14 02:32:12;;;;;;;11.57;10.40;;;14.40;99.90;;;;;;5118848;28;20460;-55
2023/06/14 02:34:41;;;;;;;12.00;10.80;;;14.40;99.90;;;;;;5119406;28;20894;-56
2023/06/14 02:37:08;;;;;;;10.90;10.00;;;14.40;99.90;;;;;;5119383;28;20829;-55
2023/06/14 02:39:36;;;;;;;11.53;10.50;;;14.40;1.00;;;;;;5119098;28;20558;-56
2023/06/14 02:42:03;;;;;;;10.40;9.50;;;14.40;1.00;;;;;;5118965;28;20463;-55
2023/06/14 02:44:32;;;;;;;12.50;11.20;;;14.30;99.90;;;;;;5119413;28;20459;-54
2023/06/14 02:47:00;;;;;;;11.97;10.90;;;14.30;99.90;;;;;;5119172;28;20468;-57
2023/06/14 02:49:29;;;;;;;11.30;10.33;;;14.20;1.00;;;;;;5118473;28;20558;-53
2023/06/14 02:51:56;;;;;;;11.13;10.03;;;14.20;99.90;;;;;;5118716;28;20456;-57
2023/06/14 02:54:24;;;;;;;12.33;11.10;;;14.20;99.90;;;;;;5118959;28;20463;-55
2023/06/14 02:56:51;;;;;;;11.80;10.60;;;14.20;99.90;;;;;;5118984;28;20834;-57
2023/06/14 02:59:19;;;;;;;11.53;10.40;;;14.20;2.10;;;;;;5118703;28;20753;-54
2023/06/14 03:01:46;;;;;;;12.00;11.00;;;14.10;1.00;;;;;;5118327;28;20551;-57
2023/06/14 03:04:14;;;;;;;12.60;11.50;;;14.10;99.90;;;;;;5118774;28;20872;-58
2023/06/14 03:06:44;;;;;;;11.77;10.60;;;14.00;1.00;;;;;;5118749;28;20459;-57
2023/06/14 03:09:11;;;;;;;12.03;10.80;;;14.00;1.00;;;;;;5118420;28;20463;-56
2023/06/14 03:11:38;;;;;;;16.87;11.77;;;13.90;99.90;;;;;;5118358;28;20460;-56
2023/06/14 03:14:06;;;;;;;12.50;11.03;;;13.90;99.90;;;;;;5118636;28;20459;-57
2023/06/14 03:16:34;;;;;;;11.63;10.50;;;13.80;1.00;;;;;;5118587;28;20463;-55
2023/06/14 03:19:01;;;;;;;11.90;10.73;;;13.80;99.90;;;;;;5118290;28;20502;-55
2023/06/14 03:21:28;;;;;;;11.67;10.63;;;13.80;1.00;;;;;;5118718;28;20937;-54
2023/06/14 03:23:57;;;;;;;11.70;10.60;;;13.80;1.00;;;;;;5118301;28;20915;-56
2023/06/14 03:26:24;;;;;;;12.10;10.10;;;13.70;1.00;;;;;;5118782;28;20468;-54
2023/06/14 03:28:52;;;;;;;10.80;9.70;;;13.70;1.00;;;;;;5118721;28;20805;-57
2023/06/14 03:31:19;;;;;;;12.30;11.23;;;13.70;99.90;;;;;;5118028;28;20862;-57
2023/06/14 03:33:46;;;;;;;12.00;10.87;;;13.70;99.90;;;;;;5117936;28;20482;-55
2023/06/14 03:36:13;;;;;;;12.37;11.07;;;13.70;1.00;;;;;;5117991;28;20558;-56
2023/06/14 03:38:40;;;;;;;12.10;10.57;;;13.70;1.00;;;;;;5117561;28;20948;-57
2023/06/14 03:41:09;;;;;;;13.53;11.57;;;13.60;99.90;;;;;;5118050;28;20541;-57
2023/06/14 03:43:36;;;;;;;11.77;10.60;;;13.60;99.90;;;;;;5114513;28;20471;-56
2023/06/14 03:46:03;;;;;;;10.53;9.50;;;13.70;99.90;;;;;;5109153;28;20507;-54
2023/06/14 03:48:31;;;;;;;11.80;10.60;;;13.60;71.10;;;;;;5097861;28;20460;-54
2023/06/14 03:50:58;;;;;;;10.90;9.80;;;13.60;1.00;;;;;;5097987;28;20460;-57
2023/06/14 03:53:27;;;;;;;11.50;10.40;;;13.70;1.00;;;;;;5097298;28;20893;-56
2023/06/14 03:55:54;;;;;;;10.70;9.77;;;13.70;1.00;;;;;;5097105;28;20475;-56
2023/06/14 03:58:23;;;;;;;14.67;9.87;;;13.70;1.00;;;;;;5097304;28;20590;-56
2023/06/14 04:00:51;;;;;;;10.70;9.57;;;13.70;1.00;;;;;;5097709;28;20459;-56
2023/06/14 04:03:19;;;;;;;10.10;8.67;;;13.70;1.00;;;;;;5096799;28;20494;-56
2023/06/14 04:05:49;;;;;;;10.97;9.97;;;13.80;1.00;;;;;;5097343;28;20554;-56
2023/06/14 04:08:19;;;;;;;11.47;10.37;;;13.80;1.00;;;;;;5097199;28;20460;-55
2023/06/14 04:10:46;;;;;;;10.70;9.60;;;13.80;99.90;;;;;;5097341;28;20439;-55
2023/06/14 04:13:13;;;;;;;10.63;9.53;;;13.90;99.90;;;;;;5097625;28;20513;-54
2023/06/14 04:15:43;;;;;;;10.83;9.83;;;14.00;99.90;;;;;;5097074;28;20467;-55
2023/06/14 04:18:11;;;;;;;10.40;8.87;;;14.00;99.90;;;;;;5097146;28;20595;-56
2023/06/14 04:20:39;;;;;;;11.67;10.40;;;14.00;99.90;;;;;;5099620;28;20460;-57
2023/06/14 04:23:18;;;;;;;11.07;9.87;;;14.00;99.90;;;;;;5116684;28;20581;-57
2023/06/14 04:25:47;;;;;;;10.33;8.97;;;14.10;99.90;;;;;;5115974;28;20477;-55
2023/06/14 04:28:17;;;;;;;11.00;10.00;;;14.10;99.90;;;;;;5113917;28;20451;-55
2023/06/14 04:30:47;;;;;;;10.33;9.20;;;14.20;99.90;;;;;;5116972;28;20534;-57
2023/06/14 04:33:14;;;;;;;9.10;8.23;;;14.20;99.90;;;;;;5113953;28;20452;-56
2023/06/14 04:35:41;;;;;;;9.87;8.87;;;14.30;99.90;;;;;;5116466;28;20508;-57
2023/06/14 04:38:10;;;;;;;10.00;9.10;;;14.40;99.90;;;;;;5116349;28;20563;-57
2023/06/14 04:40:42;;;;;;;11.50;9.33;;;14.40;99.90;;;;;;5116696;28;20447;-57
2023/06/14 04:43:12;;;;;;;8.90;8.00;;;14.40;99.90;;;;;;5116490;28;20509;-55
2023/06/14 04:45:40;;;;;;;10.43;9.43;;;14.40;99.90;;;;;;5116676;28;20891;-57
2023/06/14 04:48:10;;;;;;;9.90;8.70;;;14.50;99.90;;;;;;5115918;28;20899;-56
2023/06/14 04:50:39;;;;;;;10.10;8.67;;;14.60;99.90;;;;;;5115622;28;20452;-57
2023/06/14 04:53:08;;;;;;;10.80;9.00;;;14.60;99.90;;;;;;5113409;28;20463;-55
2023/06/14 04:55:35;;;;;;;12.00;8.53;;;14.80;99.90;;;;;;5118651;28;20459;-54
2023/06/14 04:58:03;;;;;;;14.17;9.90;;;14.80;99.90;;;;;;5118685;28;20479;-56
2023/06/14 05:00:30;;;;;;;13.77;9.53;;;14.80;99.90;;;;;;5117364;28;20463;-54
2023/06/14 05:02:58;;;;;;;10.07;9.03;;;14.90;99.90;;;;;;5103057;28;20492;-56
2023/06/14 05:05:26;;;;;;;9.07;8.17;;;15.00;99.90;;;;;;5098983;28;20529;-56
2023/06/14 05:07:53;;;;;;;11.97;8.97;;;15.10;99.90;;;;;;5113379;28;20898;-57
2023/06/14 05:10:21;;;;;;;9.03;8.23;;;15.10;99.90;;;;;;5121204;28;20560;-58
2023/06/14 05:12:48;;;;;;;8.90;8.10;;;15.20;99.90;;;;;;5120805;28;20787;-58
2023/06/14 05:15:16;;;;;;;10.07;8.17;;;15.30;99.90;;;;;;5120536;28;20532;-57
2023/06/14 05:17:43;;;;;;;9.23;8.43;;;15.50;99.90;;;;;;5116982;28;20577;-57
2023/06/14 05:20:11;;;;;;;9.20;8.30;;;15.50;99.90;;;;;;5114749;28;20566;-57
2023/06/14 05:22:39;;;;;;;11.10;8.07;;;15.60;99.90;;;;;;5118337;28;20562;-55
2023/06/14 05:25:07;;;;;;;9.50;8.60;;;15.70;99.90;;;;;;5118830;28;20503;-56
2023/06/14 05:27:36;;;;;;;8.00;7.20;;;15.90;99.90;;;;;;5119756;28;20456;-58
2023/06/14 05:30:04;;;;;;;8.37;7.60;;;16.00;99.90;;;;;;5119819;28;20463;-57
2023/06/14 05:32:32;;;;;;;7.80;7.00;;;16.20;99.90;;;;;;5111799;28;20873;-56
2023/06/14 05:34:59;;;;;;;10.53;7.13;;;16.40;99.90;;;;;;5099162;28;20919;-58
2023/06/14 05:37:26;;;;;;;8.27;7.57;;;16.60;99.90;;;;;;5101494;28;20480;-55
2023/06/14 05:39:55;;;;;;;8.87;7.37;;;16.80;99.90;;;;;;5119202;28;20482;-58
2023/06/14 05:42:22;;;;;;;8.80;7.97;;;17.10;99.90;;;;;;5119468;28;20458;-55
2023/06/14 05:44:49;;;;;;;8.77;7.87;;;17.40;99.90;;;;;;5115170;28;20777;-53
2023/06/14 05:47:17;;;;;;;8.40;7.60;;;17.60;1.00;;;;;;5115389;28;20546;-49
2023/06/14 05:49:45;;;;;;;8.97;7.13;;;17.90;99.90;;;;;;5114589;28;20457;-53
2023/06/14 05:52:12;;;;;;;7.20;6.60;;;18.30;99.90;;;;;;5117288;28;20470;-56
2023/06/14 05:54:41;;;;;;;7.83;7.03;;;18.60;99.90;;;;;;5117815;28;20459;-54
2023/06/14 05:57:11;;;;;;;7.90;6.90;;;18.90;99.90;;;;;;5118255;28;20465;-56
2023/06/14 05:59:38;;;;;;;7.67;6.83;;;19.10;1.00;;;;;;5115819;28;20460;-52
2023/06/14 06:02:06;;;;;;;9.53;7.00;;;19.30;99.90;;;;;;5117876;28;20962;-55
2023/06/14 06:04:33;;;;;;;7.30;6.67;;;19.50;99.90;;;;;;5118512;28;20455;-56
2023/06/14 06:07:00;;;;;;;8.47;6.87;;;19.70;99.90;;;;;;5119519;28;20461;-56
2023/06/14 06:09:28;;;;;;;14.43;6.73;;;19.90;1.00;;;;;;5119440;28;20462;-52
2023/06/14 06:11:55;;;;;;;8.30;5.80;;;20.10;99.90;;;;;;5119698;28;20478;-54
2023/06/14 06:14:24;;;;;;;6.40;5.80;;;20.00;1.00;;;;;;5119801;28;20550;-56
2023/06/14 06:16:52;;;;;;;7.67;6.30;;;20.10;1.00;;;;;;5119732;28;20516;-58
2023/06/14 06:19:19;;;;;;;9.37;6.30;;;20.40;42.50;;;;;;5115785;28;20483;-52
2023/06/14 06:21:46;;;;;;;7.53;6.40;;;20.40;99.90;;;;;;5119417;28;20738;-56
2023/06/14 06:24:14;;;;;;;7.40;6.70;;;20.40;99.90;;;;;;5119671;28;20498;-53
2023/06/14 06:26:41;;;;;;;9.87;6.97;;;20.40;1.00;;;;;;5120081;28;20924;-53
2023/06/14 06:29:08;;;;;;;7.67;6.50;;;20.50;1.00;;;;;;5110496;28;20912;-57
2023/06/14 06:31:37;;;;;;;8.87;5.90;;;20.80;8.40;;;;;;5115080;27;20467;-57
2023/06/14 06:34:04;;;;;;;6.73;5.90;;;21.00;30.00;;;;;;5118484;28;20472;-57
2023/06/14 06:36:31;;;;;;;11.47;6.63;;;21.10;38.50;;;;;;5119159;28;20550;-57
2023/06/14 06:38:58;;;;;;;6.57;5.97;;;21.20;36.20;;;;;;5114819;28;20491;-58
2023/06/14 06:41:26;;;;;;;6.67;5.40;;;21.30;16.30;;;;;;5118064;28;20538;-55
2023/06/14 06:43:53;;;;;;;5.73;5.27;;;21.30;99.90;;;;;;5117674;28;20463;-55
2023/06/14 06:46:21;;;;;;;7.13;6.10;;;21.70;99.90;;;;;;5117659;28;20558;-58
2023/06/14 06:48:49;;;;;;;6.30;5.70;;;21.50;99.90;;;;;;5117461;28;20501;-55
2023/06/14 06:51:17;;;;;;;6.40;5.80;;;21.40;99.90;;;;;;5116426;28;20479;-57
2023/06/14 06:53:44;;;;;;;6.60;5.57;;;21.80;99.90;;;;;;5116432;28;20469;-56
2023/06/14 06:56:12;;;;;;;6.43;5.93;;;22.20;99.90;;;;;;5116760;28;20459;-57
2023/06/14 06:58:39;;;;;;;8.13;4.27;;;22.50;99.90;;;;;;5117058;28;20488;-54
2023/06/14 07:01:06;;;;;;;6.17;4.90;;;22.80;99.90;;;;;;5117307;28;20490;-56
2023/06/14 07:03:34;;;;;;;6.87;4.70;;;23.20;99.90;;;;;;5116592;28;20772;-54
2023/06/14 07:06:02;;;;;;;3.90;3.60;;;23.50;66.00;;;;;;5114078;27;20563;-58
2023/06/14 07:08:30;;;;;;;4.20;3.90;;;23.60;1.00;;;;;;5115370;28;20487;-54
2023/06/14 07:10:57;;;;;;;3.90;3.50;;;23.60;1.00;;;;;;5115071;28;20755;-56
2023/06/14 07:13:25;;;;;;;6.13;4.30;;;23.60;1.00;;;;;;5115389;28;20760;-55
2023/06/14 07:15:55;;;;;;;5.13;4.27;;;23.90;1.00;;;;;;5117024;28;20479;-56
2023/06/14 07:18:22;;;;;;;5.60;5.10;;;23.80;1.00;;;;;;5115515;28;20519;-54
2023/06/14 07:20:50;;;;;;;6.27;4.77;;;23.70;1.00;;;;;;5117413;28;20459;-52
2023/06/14 07:23:18;;;;;;;6.50;4.63;;;24.00;1.00;;;;;;5113143;28;20900;-53
2023/06/14 07:25:46;;;;;;;5.77;4.63;;;23.50;1.00;;;;;;5113871;28;20463;-56
2023/06/14 07:28:13;;;;;;;5.73;5.23;;;23.40;1.00;;;;;;5118222;28;20455;-54
2023/06/14 07:30:40;;;;;;;5.33;4.80;;;23.50;1.00;;;;;;5117339;28;20460;-56
2023/06/14 07:33:08;;;;;;;4.63;4.23;;;23.40;1.00;;;;;;5118217;28;20455;-55
2023/06/14 07:35:35;;;;;;;4.60;4.20;;;23.60;1.00;;;;;;5116563;28;20759;-57
2023/06/14 07:38:02;;;;;;;5.37;4.07;;;24.20;1.00;;;;;;5117414;28;20635;-56
2023/06/14 07:40:31;;;;;;;4.33;3.60;;;24.50;1.00;;;;;;5118215;28;20480;-56
2023/06/14 07:42:59;;;;;;;5.63;3.80;;;24.80;1.00;;;;;;5118082;28;20471;-55
2023/06/14 07:45:26;;;;;;;4.60;4.20;;;25.10;1.00;;;;;;5114440;28;20521;-53
2023/06/14 07:47:53;;;;;;;4.60;4.30;;;25.00;1.00;;;;;;5116849;28;20507;-57
2023/06/14 07:50:20;;;;;;;4.80;4.03;;;25.30;1.00;;;;;;5117228;28;20764;-58
2023/06/14 07:52:48;;;;;;;4.70;4.07;;;25.20;1.00;;;;;;5117525;28;20460;-57
2023/06/14 07:55:16;;;;;;;4.40;4.03;;;24.90;1.00;;;;;;5103639;28;20473;-55
2023/06/14 07:57:45;;;;;;;4.57;4.03;;;25.00;1.00;;;;;;5111911;28;20473;-55
2023/06/14 08:00:15;;;;;;;4.43;3.37;;;24.30;1.00;;;;;;5117327;28;20544;-56
2023/06/14 08:02:42;;;;;;;5.43;3.63;;;24.80;1.00;;;;;;5101840;28;20495;-52
2023/06/14 08:05:11;;;;;;;5.77;3.97;;;24.30;1.00;;;;;;5097767;28;20452;-56
2023/06/14 08:07:42;;;;;;;4.00;3.60;;;23.90;1.00;;;;;;5114720;28;20474;-58
2023/06/14 08:10:12;;;;;;;4.13;3.73;;;24.30;1.00;;;;;;5117914;28;20448;-57
2023/06/14 08:12:40;;;;;;;3.77;3.23;;;24.40;1.00;;;;;;5117817;28;20516;-59
2023/06/14 08:15:09;;;;;;;6.30;3.97;;;24.60;1.00;;;;;;5117088;28;20846;-56
2023/06/14 08:17:36;;;;;;;4.00;3.40;;;24.70;1.00;;;;;;5110243;28;20471;-58
2023/06/14 08:20:05;;;;;;;7.03;3.97;;;25.00;1.00;;;;;;5115384;28;20948;-56
2023/06/14 08:22:33;;;;;;;4.27;3.90;;;25.20;1.00;;;;;;5105200;28;20472;-55
2023/06/14 08:25:01;;;;;;;6.17;3.67;;;24.50;1.00;;;;;;5097106;28;20559;-62
2023/06/14 08:27:28;;;;;;;4.00;3.67;;;24.20;1.00;;;;;;5096404;28;20452;-53
2023/06/14 08:29:55;;;;;;;3.70;3.40;;;24.00;1.00;;;;;;5099895;28;20456;-58
2023/06/14 08:32:24;;;;;;;4.77;3.40;;;23.80;1.00;;;;;;5101184;28;20571;-54
2023/06/14 08:34:51;;;;;;;3.93;3.73;;;23.80;1.00;;;;;;5100706;28;20756;-56
2023/06/14 08:37:18;;;;;;;3.90;3.00;;;24.10;1.00;;;;;;5116186;28;20510;-58
2023/06/14 08:39:46;;;;;;;3.30;3.10;;;24.10;1.00;;;;;;5120798;28;20527;-59
2023/06/14 08:42:16;;;;;;;3.67;3.37;;;24.60;1.00;;;;;;5121149;28;20490;-59
2023/06/14 08:44:44;;;;;;;3.67;3.30;;;25.20;1.00;;;;;;5121578;28;20562;-59
2023/06/14 08:47:12;;;;;;;5.43;3.20;;;25.50;1.00;;;;;;5120641;28;20814;-59
2023/06/14 08:49:44;;;;;;;3.53;3.33;;;25.30;1.00;;;;;;5121083;28;20876;-59
2023/06/14 08:52:13;;;;;;;3.37;3.17;;;24.80;1.00;;;;;;5105052;28;20508;-59
2023/06/14 08:54:43;;;;;;;3.83;3.10;;;24.60;1.00;;;;;;5100152;28;20467;-59
2023/06/14 08:57:16;;;;;;;3.20;3.00;;;24.20;1.00;;;;;;5100687;28;20495;-59
2023/06/14 08:59:52;;;;;;;3.40;3.20;;;24.70;1.00;;;;;;5100290;28;20488;-61
2023/06/14 09:02:22;;;;;;;3.17;2.87;;;25.30;1.00;;;;;;5109262;28;20585;-58
2023/06/14 09:04:50;;;;;;;5.63;3.30;;;25.40;1.00;;;;;;5121014;28;20463;-59
2023/06/14 09:07:18;;;;;;;3.60;3.30;;;25.60;1.00;;;;;;5119285;28;20864;-57
2023/06/14 09:09:45;;;;;;;4.97;3.67;;;25.20;1.00;;;;;;5119120;28;20459;-58
2023/06/14 09:12:12;;;;;;;4.60;3.67;;;24.70;1.00;;;;;;5114365;28;20468;-59
2023/06/14 09:14:42;;;;;;;4.50;4.10;;;25.00;1.00;;;;;;5111597;27;20765;-60
2023/06/14 09:17:09;;;;;;;3.90;3.70;;;25.10;1.00;;;;;;5103551;28;20562;-62
2023/06/14 09:19:37;;;;;;;5.43;3.50;;;25.50;1.00;;;;;;5116158;28;20540;-60
2023/06/14 09:22:11;;;;;;;3.93;3.53;;;24.80;1.00;;;;;;5118006;28;20472;-58
2023/06/14 09:24:38;;;;;;;3.70;3.40;;;25.20;1.00;;;;;;5098566;28;20506;-59
2023/06/14 09:27:07;;;;;;;4.30;4.00;;;25.20;1.00;;;;;;5099025;28;20944;-59
2023/06/14 09:29:35;;;;;;;4.37;3.37;;;24.80;1.00;;;;;;5098845;28;20460;-58
2023/06/14 09:32:03;;;;;;;3.77;3.47;;;25.00;1.00;;;;;;5099210;28;20761;-59
2023/06/14 09:34:30;;;;;;;7.93;3.30;;;25.30;1.00;;;;;;5117685;28;20808;-61
2023/06/14 09:36:57;;;;;;;4.20;3.57;;;25.50;1.00;;;;;;5120488;28;20501;-61
2023/06/14 09:39:27;;;;;;;4.37;3.87;;;25.60;1.00;;;;;;5117275;28;21030;-62
2023/06/14 09:41:54;;;;;;;3.50;3.30;;;25.50;1.00;;;;;;5119562;28;20884;-59
2023/06/14 09:44:25;;;;;;;4.10;3.70;;;25.00;1.00;;;;;;5120311;28;20470;-59
2023/06/14 09:46:52;;;;;;;3.83;3.60;;;25.80;1.00;;;;;;5119401;28;20791;-59
2023/06/14 09:49:19;;;;;;;4.13;3.73;;;25.90;1.00;;;;;;5118177;28;20498;-59
2023/06/14 09:51:51;;;;;;;3.60;3.40;;;25.30;1.00;;;;;;5118750;28;20471;-60
2023/06/14 09:54:23;;;;;;;4.70;3.40;;;25.20;1.00;;;;;;5122876;27;20459;-60
2023/06/14 09:56:53;;;;;;;4.77;3.53;;;24.70;1.00;;;;;;5139793;27;20539;-59
2023/06/14 09:59:29;;;;;;;5.03;3.40;;;24.70;1.00;;;;;;5127439;27;20484;-58
2023/06/14 10:02:00;;;;;;;4.30;3.90;;;25.40;1.00;;;;;;5117371;28;20463;-60
2023/06/14 10:04:30;;;;;;;3.50;3.20;;;25.60;1.00;;;;;;5097877;28;20472;-59
2023/06/14 10:06:57;;;;;;;3.50;3.30;;;25.20;1.00;;;;;;5098269;28;20744;-59
2023/06/14 10:09:25;;;;;;;3.80;3.50;;;25.30;1.00;;;;;;5098417;28;20804;-59
2023/06/14 10:11:54;;;;;;;3.60;3.00;;;25.90;1.00;;;;;;5098517;28;20467;-59
2023/06/14 10:14:22;;;;;;;3.20;2.90;;;26.60;1.00;;;;;;5098884;28;20483;-60
2023/06/14 10:16:57;;;;;;;3.50;3.20;;;27.10;1.00;;;;;;5097510;28;20900;-59
2023/06/14 10:19:34;;;;;;;3.83;3.57;;;27.40;99.90;;;;;;5097493;28;20924;-59
2023/06/14 10:22:05;;;;;;;4.37;3.07;;;27.20;99.90;;;;;;5097120;28;20464;-60
2023/06/14 10:24:39;;;;;;;3.07;2.87;;;26.70;99.90;;;;;;5097879;28;20553;-58
2023/06/14 10:27:11;;;;;;;3.53;3.23;;;26.70;99.90;;;;;;5097807;28;20460;-59
2023/06/14 10:30:04;;;;;;;3.50;3.30;;;27.00;99.90;;;;;;5105699;28;20848;-58
2023/06/14 10:32:33;;;;;;;3.73;3.43;;;27.40;99.90;;;;;;5118669;28;20487;-57
2023/06/14 10:35:02;;;;;;;3.13;2.93;;;26.90;99.90;;;;;;5119649;27;20463;-59
2023/06/14 10:37:30;;;;;;;3.20;2.90;;;26.50;99.90;;;;;;5118790;28;20455;-59
2023/06/14 10:39:57;;;;;;;3.23;2.90;;;26.70;99.90;;;;;;5118195;28;20506;-60
2023/06/14 10:42:31;;;;;;;3.37;2.97;;;27.30;99.90;;;;;;5117531;28;20487;-59
2023/06/14 10:44:59;;;;;;;5.10;2.60;;;27.40;99.90;;;;;;5118700;28;20474;-56
2023/06/14 10:47:28;;;;;;;3.07;2.87;;;27.20;99.90;;;;;;5118818;28;20466;-55
2023/06/14 10:49:57;;;;;;;3.73;3.00;;;26.40;99.90;;;;;;5119012;28;20462;-56
2023/06/14 10:52:27;;;;;;;2.90;2.67;;;26.90;99.90;;;;;;5118369;28;20819;-57
2023/06/14 10:55:11;;;;;;;3.50;3.20;;;27.60;99.90;;;;;;5118592;28;20803;-57
2023/06/14 10:57:41;;;;;;;3.70;3.20;;;27.50;99.90;;;;;;5115574;28;20452;-57
2023/06/14 11:00:15;;;;;;;3.47;3.17;;;27.30;99.90;;;;;;5117885;27;20585;-55
2023/06/14 11:03:37;;;;;;;4.87;2.90;;;26.50;99.90;;;;;;5116064;28;20551;-59
2023/06/14 11:06:14;;;;;;;9.17;2.87;;;27.10;99.90;;;;;;5118025;28;20843;-58
2023/06/14 11:09:19;;;;;;;3.30;3.00;;;27.10;99.90;;;;;;5113207;28;20975;-57
2023/06/14 11:11:49;;;;;;;2.90;2.70;;;27.90;99.90;;;;;;5117819;28;20497;-57
2023/06/14 11:14:18;;;;;;;2.90;2.67;;;27.80;99.90;;;;;;5118295;28;20510;-57
2023/06/14 11:16:49;;;;;;;2.93;2.73;;;28.20;99.90;;;;;;5117909;28;20500;-56
2023/06/14 11:19:18;;;;;;;2.90;2.70;;;28.60;99.90;;;;;;5113926;28;20583;-57
2023/06/14 11:21:48;;;;;;;3.97;2.77;;;28.90;99.90;;;;;;5118058;28;20470;-57
2023/06/14 11:24:16;;;;;;;4.53;3.30;;;29.50;99.90;;;;;;5118137;28;20455;-57
2023/06/14 11:26:45;;;;;;;4.10;2.87;;;28.50;99.90;;;;;;5115350;28;20845;-56
2023/06/14 11:29:12;;;;;;;3.03;2.70;;;28.40;99.90;;;;;;5115998;28;20471;-58
2023/06/14 11:31:45;;;;;;;5.80;2.80;;;28.40;99.90;;;;;;5117186;27;20487;-59
2023/06/14 11:34:13;;;;;;;3.03;2.73;;;27.60;99.90;;;;;;5115672;28;20467;-57
2023/06/14 11:36:41;;;;;;;5.17;2.80;;;27.70;99.90;;;;;;5105090;28;20537;-56
2023/06/14 11:39:09;;;;;;;2.70;2.50;;;27.70;99.90;;;;;;5095550;28;20461;-56
2023/06/14 11:41:39;;;;;;;4.43;3.07;;;27.80;99.90;;;;;;5095749;28;20654;-57
2023/06/14 11:44:06;;;;;;;4.67;2.70;;;28.00;99.90;;;;;;5123463;27;20463;-57
2023/06/14 11:46:33;;;;;;;3.70;2.70;;;27.70;99.90;;;;;;5117931;28;20470;-56
2023/06/14 11:49:04;;;;;;;4.33;3.00;;;28.10;99.90;;;;;;5117860;28;20555;-57
2023/06/14 11:51:32;;;;;;;3.33;3.03;;;28.10;99.90;;;;;;5114653;28;20493;-58
2023/06/14 11:54:00;;;;;;;3.43;3.17;;;28.20;99.90;;;;;;5117083;28;20474;-56
2023/06/14 11:56:27;;;;;;;3.50;3.20;;;28.30;99.90;;;;;;5117884;28;20467;-59
2023/06/14 11:58:57;;;;;;;4.57;2.73;;;28.30;99.90;;;;;;5117970;28;20459;-57
2023/06/14 12:01:25;;;;;;;3.63;3.43;;;27.70;99.90;;;;;;5117410;28;20590;-56
2023/06/14 12:03:54;;;;;;;4.30;3.30;;;28.00;99.90;;;;;;5114781;28;20839;-57
2023/06/14 12:06:32;;;;;;;4.83;3.40;;;28.10;99.90;;;;;;5117316;28;20508;-57
2023/06/14 12:09:01;;;;;;;3.50;3.20;;;28.60;99.90;;;;;;5115617;28;20466;-53
2023/06/14 12:11:34;;;;;;;5.03;3.60;;;28.60;99.90;;;;;;5116593;28;20454;-56
2023/06/14 12:14:03;;;;;;;5.33;3.13;;;27.70;99.90;;;;;;5116223;28;20451;-56
2023/06/14 12:16:35;;;;;;;3.20;3.00;;;27.60;99.90;;;;;;5116041;28;20483;-56
2023/06/14 12:19:11;;;;;;;3.77;3.37;;;27.90;99.90;;;;;;5116369;28;20467;-57
2023/06/14 12:21:41;;;;;;;3.67;3.37;;;28.50;99.90;;;;;;5109743;28;20467;-56
2023/06/14 12:24:11;;;;;;;5.80;2.90;;;28.40;99.90;;;;;;5121042;28;20770;-57
2023/06/14 12:26:40;;;;;;;3.93;3.73;;;29.00;99.90;;;;;;5115231;28;20463;-56
2023/06/14 12:29:08;;;;;;;3.93;3.63;;;29.30;99.90;;;;;;5113042;28;20520;-55
2023/06/14 12:31:36;;;;;;;4.30;3.90;;;29.00;99.90;;;;;;5116260;28;20467;-57
2023/06/14 12:34:03;;;;;;;3.43;3.13;;;29.00;99.90;;;;;;5115223;28;20466;-57
2023/06/14 12:36:32;;;;;;;4.43;3.40;;;28.80;99.90;;;;;;5114451;28;20494;-58
2023/06/14 12:39:00;;;;;;;5.00;3.50;;;29.30;99.90;;;;;;5111715;28;20467;-57
2023/06/14 12:41:28;;;;;;;4.43;4.03;;;28.30;99.90;;;;;;5112328;28;20519;-54
2023/06/14 12:43:57;;;;;;;4.17;3.77;;;27.80;99.90;;;;;;5110805;28;20507;-57
2023/06/14 12:46:25;;;;;;;4.07;3.80;;;28.50;99.90;;;;;;5113916;28;20921;-55
2023/06/14 12:48:52;;;;;;;3.73;3.43;;;28.40;99.90;;;;;;5113319;28;20463;-57
2023/06/14 12:51:20;;;;;;;4.07;3.70;;;28.60;99.90;;;;;;5114597;28;20539;-56
2023/06/14 12:53:47;;;;;;;5.93;3.47;;;28.80;99.90;;;;;;5115733;28;20530;-56